Friedman Memorial Airport
KSUN : now visible

Airfield :











YOU CAN JOIN US ON...

 
LOGIN :

Register | Disclaimer

   EN    FR    IT 

 









Legend :    VFR   Marginal VFR   IFR   Intensive IFR   Very Intensive IFR
Visi :
Ceiling :
>= 8 km
>= 3000ft
5 to 8 km
1000 to 3000 ft
1500m to 5 km
500 to 1000 ft
800 to 1500m
200 to 500 ft
< 800m
< 200 ft
Symbols :   Thunderstorms  Fog  Heavy snow  Heavy precipitations  Wind > 20 kt






- Airport Elevation : 5318 ft


KSUN - Friedman Memorial

CURRENT METAR :
  • 110457Z 29007KT 10SM SKC M07/M09 A3023

EXPIRED METARs :
  • 110354Z 30008KT 10SM SKC M07/M09 A3026
  • 110255Z 30004KT 10SM SKC M06/M08 A3027

TAF KSUN
Valid from the 11 at 00:00 until the 12 at 06:00 UTC


102321Z 1100/1206 15006KT P6SM FEW180
FM110400 32006KT P6SM SCT050 BKN130
FM111500 VRB04KT 5SM -SN SCT010 BKN025 OVC050
FM111700 23011KT P6SM BKN040
FM120300 VRB05KT P6SM VCSH SCT020 OVC040 AMD LTD TO CLD VIS AND WIND 1105/1113



MET'MAP, your aeronautical weather chart ! - Copyright ORBIFLY December 2007 - Disclaimer

ORBIFLY MET'MAP TEAM :

Programming & Development : Alexandra Zaïnal
Concept & original design : Baudouin d'Aumeries
Assistance for programming : Marc-Olivier Méhu
Technical & hardware support : Manuel Goepfert

Contact : metmap@orbifly.com




SOURCES & CREDITS :

   NOAA       Earth
Advisory